English Harbour East, Canada
Current Conditions -  °F | °C
As of 8:00 AM on Thursday 18 Dec 2014 (Local Time) from LFVP Reporting Station
Drizzle Drizzle  
Wind Chill: 29°   Ceiling: 600
Heat Index: 39°   Visibility: 4mi
Dew Point: 39°   Wind: 23mph
Humidity: 100%   Direction: 120°ESE
Pressure: 29.85"   Gusts: NA
Location:  47.65°N, 54.93°W
Report Text: LFVP 181100Z 12020KT 6000 -DZ BKN006 04/04 Q1011 NOSIG
Loading
Personal Weather Stations






























Interactive Weather Map New forecast layout! Learn more

10-Day Weather Forecast

Advertisements
Track Severe Weather on mobile